createdAt,value
2022-12-27T00:02:36.877Z,24.27
2022-12-27T00:05:44.234Z,24.10
2022-12-27T00:08:47.811Z,24.63
2022-12-27T00:11:54.838Z,23.98
2022-12-27T00:15:01.064Z,22.35
2022-12-27T00:18:03.782Z,19.20
2022-12-27T00:21:10.115Z,20.30
2022-12-27T00:24:12.741Z,18.70
2022-12-27T00:27:15.352Z,17.05
2022-12-27T00:30:18.031Z,17.35
2022-12-27T00:33:20.693Z,15.77
2022-12-27T00:36:26.645Z,16.73
2022-12-27T00:39:29.235Z,16.98
2022-12-27T00:42:32.251Z,16.23
2022-12-27T00:45:35.943Z,15.10
2022-12-27T00:48:39.296Z,15.80
2022-12-27T00:51:43.708Z,14.60
2022-12-27T00:54:46.409Z,16.17
2022-12-27T00:57:49.071Z,15.25
2022-12-27T01:00:52.417Z,15.25
2022-12-27T01:03:56.578Z,15.07
2022-12-27T01:07:01.738Z,12.20
2022-12-27T01:10:05.332Z,11.00
2022-12-27T01:13:09.146Z,9.60
2022-12-27T01:16:13.779Z,9.18
2022-12-27T01:19:16.663Z,8.70
2022-12-27T01:22:20.707Z,8.45
2022-12-27T01:25:23.506Z,7.93
2022-12-27T01:28:26.191Z,8.52
2022-12-27T01:31:29.012Z,7.88
2022-12-27T01:34:31.712Z,7.90
2022-12-27T01:37:35.667Z,8.15
2022-12-27T01:40:38.299Z,7.90
2022-12-27T01:43:40.866Z,8.90
2022-12-27T01:46:43.575Z,8.68
2022-12-27T01:49:53.317Z,8.77
2022-12-27T01:53:05.330Z,8.48
2022-12-27T01:56:12.568Z,9.00
2022-12-27T01:59:15.625Z,8.52
2022-12-27T02:02:18.544Z,8.77
2022-12-27T02:05:23.741Z,8.50
2022-12-27T02:08:39.060Z,8.98
2022-12-27T02:11:51.419Z,8.68
2022-12-27T02:14:54.044Z,8.57
2022-12-27T02:17:57.413Z,8.88
2022-12-27T02:21:37.164Z,9.00
2022-12-27T02:25:04.627Z,9.15
2022-12-27T02:28:17.970Z,10.13
2022-12-27T02:31:35.560Z,9.75
2022-12-27T02:34:49.006Z,9.68
2022-12-27T02:38:01.503Z,10.13
2022-12-27T02:41:25.903Z,8.95
2022-12-27T02:44:47.317Z,9.70
2022-12-27T02:48:10.634Z,9.45
2022-12-27T02:51:44.685Z,9.43
2022-12-27T02:55:24.708Z,9.37
2022-12-27T02:58:35.940Z,9.82
2022-12-27T03:02:10.342Z,9.38
2022-12-27T03:05:23.889Z,9.90
2022-12-27T03:08:35.524Z,9.40
2022-12-27T03:12:05.196Z,9.17
2022-12-27T03:15:39.157Z,9.70
2022-12-27T03:18:54.790Z,9.65
2022-12-27T03:22:18.562Z,9.65
2022-12-27T03:25:31.286Z,9.63
2022-12-27T03:28:54.782Z,9.50
2022-12-27T03:32:19.367Z,9.88
2022-12-27T03:35:26.975Z,9.68
2022-12-27T03:38:34.360Z,9.57
2022-12-27T03:42:00.853Z,9.95
2022-12-27T03:45:03.809Z,9.67
2022-12-27T03:48:07.436Z,9.70
2022-12-27T03:51:11.917Z,10.38
2022-12-27T03:54:26.187Z,10.50
2022-12-27T03:57:29.399Z,9.98
2022-12-27T04:00:32.157Z,9.07
2022-12-27T04:03:34.959Z,10.10
2022-12-27T04:06:37.596Z,10.48
2022-12-27T04:10:00.611Z,10.15
2022-12-27T04:13:21.600Z,10.38
2022-12-27T04:16:42.611Z,10.77
2022-12-27T04:20:04.012Z,10.52
2022-12-27T04:23:26.663Z,10.20
2022-12-27T04:26:49.558Z,11.45
2022-12-27T04:30:10.919Z,20.40
2022-12-27T04:33:31.983Z,14.27
2022-12-27T04:36:34.592Z,12.88
2022-12-27T04:39:37.223Z,12.85
2022-12-27T04:43:00.933Z,11.77
2022-12-27T04:46:22.110Z,11.55
2022-12-27T04:49:45.174Z,11.57
2022-12-27T04:53:06.404Z,11.57
2022-12-27T04:56:09.160Z,11.13
2022-12-27T04:59:31.865Z,11.05
2022-12-27T05:02:34.771Z,11.68
2022-12-27T05:05:39.080Z,11.80
2022-12-27T05:09:00.755Z,11.48
2022-12-27T05:12:22.233Z,10.73
2022-12-27T05:15:26.224Z,10.05
2022-12-27T05:18:28.961Z,11.30
2022-12-27T05:21:35.692Z,11.20
2022-12-27T05:25:00.903Z,11.57
2022-12-27T05:28:04.909Z,13.88
2022-12-27T05:31:09.980Z,17.77
2022-12-27T05:34:12.694Z,16.88
2022-12-27T05:37:15.573Z,17.17
2022-12-27T05:40:18.391Z,17.25
2022-12-27T05:43:21.010Z,20.98
2022-12-27T05:46:25.027Z,13.43
2022-12-27T05:49:27.746Z,11.55
2022-12-27T05:52:30.399Z,11.00
2022-12-27T05:55:33.046Z,13.43
2022-12-27T05:58:35.700Z,19.88
2022-12-27T06:01:39.852Z,18.83
2022-12-27T06:04:42.586Z,18.55
2022-12-27T06:07:45.181Z,16.23
2022-12-27T06:10:47.848Z,14.40
2022-12-27T06:13:53.192Z,10.57
2022-12-27T06:16:57.239Z,9.52
2022-12-27T06:19:59.947Z,9.10
2022-12-27T06:23:02.625Z,9.90
2022-12-27T06:26:06.225Z,9.95
2022-12-27T06:29:11.906Z,10.82
2022-12-27T06:32:17.762Z,11.13
2022-12-27T06:35:20.924Z,11.25
2022-12-27T06:38:24.206Z,14.37
2022-12-27T06:41:26.877Z,14.70
2022-12-27T06:44:29.689Z,11.75
2022-12-27T06:47:33.772Z,12.88
2022-12-27T06:50:36.876Z,12.73
2022-12-27T06:53:39.592Z,11.90
2022-12-27T06:56:42.517Z,13.05
2022-12-27T06:59:48.166Z,12.15
2022-12-27T07:02:56.757Z,14.32
2022-12-27T07:06:02.438Z,13.15
2022-12-27T07:09:05.953Z,9.40
2022-12-27T07:12:08.630Z,8.85
2022-12-27T07:15:11.310Z,8.73
2022-12-27T07:18:15.410Z,8.10
2022-12-27T07:21:23.306Z,7.18
2022-12-27T07:24:26.242Z,9.13
2022-12-27T07:27:28.873Z,9.90
2022-12-27T07:30:31.554Z,9.20
2022-12-27T07:33:36.255Z,9.27
2022-12-27T07:36:40.361Z,8.10
2022-12-27T07:39:43.150Z,6.47
2022-12-27T07:42:46.175Z,5.85
2022-12-27T07:45:48.888Z,7.13
2022-12-27T07:48:55.450Z,6.75
2022-12-27T07:51:58.175Z,5.35
2022-12-27T07:55:00.805Z,7.30
2022-12-27T07:58:03.455Z,8.40
2022-12-27T08:01:08.157Z,6.90
2022-12-27T08:04:12.760Z,5.85
2022-12-27T08:07:17.733Z,4.50
2022-12-27T08:10:20.400Z,3.53
2022-12-27T08:13:23.339Z,3.58
2022-12-27T08:16:26.545Z,4.30
2022-12-27T08:19:30.849Z,3.25
2022-12-27T08:22:33.811Z,3.65
2022-12-27T08:25:36.411Z,3.80
2022-12-27T08:28:39.178Z,4.03
2022-12-27T08:31:41.990Z,3.30
2022-12-27T08:34:46.208Z,3.10
2022-12-27T08:37:48.915Z,3.35
2022-12-27T08:40:51.931Z,3.20
2022-12-27T08:43:54.624Z,2.90
2022-12-27T08:46:57.531Z,3.20
2022-12-27T08:50:01.583Z,2.92
2022-12-27T08:53:06.057Z,3.47
2022-12-27T08:56:09.175Z,3.07
2022-12-27T08:59:12.141Z,4.07
2022-12-27T09:02:14.948Z,3.10
2022-12-27T09:05:19.674Z,3.50
2022-12-27T09:08:22.665Z,2.70
2022-12-27T09:11:26.981Z,2.60
2022-12-27T09:14:30.245Z,2.20
2022-12-27T09:17:33.068Z,2.33
2022-12-27T09:20:37.559Z,2.63
2022-12-27T09:23:41.523Z,1.90
2022-12-27T09:26:44.178Z,3.60
2022-12-27T09:29:48.582Z,5.25
2022-12-27T09:32:51.441Z,2.08
2022-12-27T09:36:01.195Z,4.10
2022-12-27T09:39:04.521Z,2.65
2022-12-27T09:45:43.957Z,2.10
2022-12-27T09:48:47.963Z,2.20
2022-12-27T09:51:57.832Z,1.90
2022-12-27T09:55:05.713Z,1.88
2022-12-27T09:58:34.795Z,1.80
2022-12-27T10:01:41.111Z,1.90
2022-12-27T10:05:18.606Z,1.30
2022-12-27T10:08:36.120Z,1.70
2022-12-27T10:11:47.802Z,1.25
2022-12-27T10:15:04.525Z,1.70
2022-12-27T10:18:18.991Z,1.90
2022-12-27T10:21:24.211Z,2.53
2022-12-27T10:24:38.102Z,1.98
2022-12-27T10:27:41.985Z,2.15
2022-12-27T10:30:45.203Z,3.03
2022-12-27T10:33:49.546Z,3.20
2022-12-27T10:36:53.299Z,3.72
2022-12-27T10:40:05.757Z,2.75
2022-12-27T10:43:17.254Z,5.97
2022-12-27T10:46:25.294Z,7.70
2022-12-27T10:49:33.429Z,3.78
2022-12-27T10:52:36.261Z,2.10
2022-12-27T10:55:40.317Z,1.30
2022-12-27T10:58:45.744Z,1.00
2022-12-27T11:01:51.288Z,1.50
2022-12-27T11:04:58.999Z,1.10
2022-12-27T11:08:20.372Z,1.10
2022-12-27T11:11:27.386Z,1.00
2022-12-27T11:14:30.082Z,1.27
2022-12-27T11:17:37.534Z,1.27
2022-12-27T11:20:47.671Z,1.00
2022-12-27T11:23:53.869Z,1.45
2022-12-27T11:26:59.385Z,1.48
2022-12-27T11:30:02.504Z,1.00
2022-12-27T11:33:22.571Z,1.70
2022-12-27T11:36:30.989Z,1.40
2022-12-27T11:39:39.331Z,1.23
2022-12-27T11:42:48.504Z,1.50
2022-12-27T11:45:51.925Z,1.30
2022-12-27T11:48:57.327Z,1.63
2022-12-27T11:52:21.544Z,2.40
2022-12-27T11:56:09.513Z,1.70
2022-12-27T11:59:32.987Z,1.60
2022-12-27T12:03:01.792Z,1.50
2022-12-27T12:06:17.731Z,1.60
2022-12-27T12:09:36.374Z,1.00
2022-12-27T12:13:05.704Z,1.20
2022-12-27T12:16:53.447Z,1.00
2022-12-27T12:20:12.202Z,1.00
2022-12-27T12:23:29.630Z,2.03
2022-12-27T12:26:39.084Z,1.63
2022-12-27T12:30:11.439Z,1.90
2022-12-27T12:33:48.634Z,2.90
2022-12-27T12:37:08.751Z,5.50
2022-12-27T12:40:27.614Z,2.93
2022-12-27T12:43:56.806Z,2.00
2022-12-27T12:47:10.999Z,2.13
2022-12-27T12:50:28.748Z,2.72
2022-12-27T12:53:48.663Z,3.97
2022-12-27T12:57:04.637Z,3.80
2022-12-27T13:00:25.177Z,2.85
2022-12-27T13:03:56.414Z,3.58
2022-12-27T13:07:24.516Z,3.50
2022-12-27T13:10:59.465Z,2.75
2022-12-27T13:14:16.313Z,3.80
2022-12-27T13:17:25.385Z,1.90
2022-12-27T13:20:53.492Z,2.92
2022-12-27T13:24:07.362Z,4.18
2022-12-27T13:27:15.885Z,2.22
2022-12-27T13:30:21.649Z,4.60
2022-12-27T13:33:35.869Z,5.00
2022-12-27T13:36:56.139Z,3.25
2022-12-27T13:40:31.539Z,3.00
2022-12-27T13:44:02.326Z,4.57
2022-12-27T13:47:35.607Z,4.23
2022-12-27T13:51:03.036Z,7.85
2022-12-27T13:54:44.298Z,6.90
2022-12-27T13:58:19.620Z,5.63
2022-12-27T14:01:42.097Z,6.97
2022-12-27T14:05:14.162Z,7.30
2022-12-27T14:08:28.464Z,6.60
2022-12-27T14:11:40.389Z,5.38
2022-12-27T14:14:45.434Z,7.25
2022-12-27T14:18:02.190Z,9.30
2022-12-27T14:21:31.672Z,9.87
2022-12-27T14:25:10.356Z,9.23
2022-12-27T14:28:47.508Z,8.02
2022-12-27T14:32:19.765Z,12.48
2022-12-27T14:35:55.857Z,5.70
2022-12-27T14:39:22.067Z,5.13
2022-12-27T14:42:58.075Z,5.50
2022-12-27T14:46:42.102Z,5.57
2022-12-27T14:50:24.866Z,6.38
2022-12-27T14:54:09.782Z,6.25
2022-12-27T14:57:27.428Z,5.83
2022-12-27T15:01:01.012Z,7.40
2022-12-27T15:04:24.852Z,7.30
2022-12-27T15:07:51.756Z,9.95
2022-12-27T15:11:03.109Z,13.20
2022-12-27T15:14:29.752Z,9.73
2022-12-27T15:17:50.211Z,12.80
2022-12-27T15:21:20.232Z,10.45
2022-12-27T15:24:38.550Z,8.00
2022-12-27T15:27:48.909Z,7.53
2022-12-27T15:30:57.137Z,9.87
2022-12-27T15:34:19.403Z,12.93
2022-12-27T15:37:53.576Z,13.68
2022-12-27T15:41:13.143Z,16.67
2022-12-27T15:44:45.334Z,26.73
2022-12-27T15:48:23.391Z,18.07
2022-12-27T15:51:33.735Z,11.13
2022-12-27T15:54:58.046Z,9.75
2022-12-27T15:58:12.186Z,9.82
2022-12-27T16:01:28.675Z,9.20
2022-12-27T16:04:46.556Z,7.17
2022-12-27T16:07:51.636Z,10.43
2022-12-27T16:10:55.865Z,14.98
2022-12-27T16:14:22.971Z,16.00
2022-12-27T16:17:35.629Z,22.45
2022-12-27T16:20:40.180Z,14.67
2022-12-27T16:23:51.140Z,19.45
2022-12-27T16:26:59.625Z,19.33
2022-12-27T16:30:02.552Z,23.42
2022-12-27T16:33:20.873Z,21.33
2022-12-27T16:36:28.770Z,10.40
2022-12-27T16:39:56.487Z,31.10
2022-12-27T16:43:31.749Z,23.27
2022-12-27T16:47:06.359Z,19.13
2022-12-27T16:50:40.467Z,14.40
2022-12-27T16:54:16.735Z,10.17
2022-12-27T16:57:33.666Z,9.25
2022-12-27T17:00:41.514Z,5.82
2022-12-27T17:03:46.819Z,5.68
2022-12-27T17:06:55.402Z,9.68
2022-12-27T17:10:34.884Z,10.10
2022-12-27T17:13:47.588Z,9.55
2022-12-27T17:16:55.996Z,8.75
2022-12-27T17:20:03.211Z,10.43
2022-12-27T17:23:06.259Z,9.75
2022-12-27T17:26:29.792Z,5.93
2022-12-27T17:29:57.600Z,12.05
2022-12-27T17:33:22.079Z,7.72
2022-12-27T17:36:39.976Z,6.15
2022-12-27T17:39:57.657Z,7.43
2022-12-27T17:43:35.089Z,8.53
2022-12-27T17:46:49.161Z,10.85
2022-12-27T17:49:54.415Z,10.73
2022-12-27T17:53:33.765Z,12.60
2022-12-27T17:57:01.547Z,14.02
2022-12-27T18:00:20.835Z,15.70
2022-12-27T18:03:30.802Z,15.68
2022-12-27T18:06:35.668Z,16.20
2022-12-27T18:09:43.638Z,11.63
2022-12-27T18:12:51.509Z,7.95
2022-12-27T18:15:56.943Z,7.17
2022-12-27T18:19:00.758Z,8.25
2022-12-27T18:22:03.593Z,8.35
2022-12-27T18:25:24.197Z,8.52
2022-12-27T18:28:33.545Z,8.80
2022-12-27T18:31:48.538Z,14.97
2022-12-27T18:34:57.311Z,18.02
2022-12-27T18:38:01.763Z,16.23
2022-12-27T18:41:08.516Z,22.75
2022-12-27T18:44:21.468Z,18.33
2022-12-27T18:47:29.211Z,19.90
2022-12-27T18:50:34.007Z,22.10
2022-12-27T18:53:38.672Z,23.00
2022-12-27T18:56:42.612Z,22.63
2022-12-27T19:00:00.742Z,17.88
2022-12-27T19:03:15.833Z,16.83
2022-12-27T19:06:19.011Z,21.77
2022-12-27T19:09:24.752Z,15.32
2022-12-27T19:12:34.175Z,12.55
2022-12-27T19:15:42.105Z,11.68
2022-12-27T19:18:51.219Z,10.83
2022-12-27T19:21:54.374Z,10.07
2022-12-27T19:24:59.279Z,9.77
2022-12-27T19:28:05.167Z,9.45
2022-12-27T19:31:18.013Z,10.32
2022-12-27T19:34:25.765Z,10.67
2022-12-27T19:37:30.428Z,10.30
2022-12-27T19:40:33.071Z,13.35
2022-12-27T19:43:38.523Z,15.70
2022-12-27T19:46:41.193Z,16.90
2022-12-27T19:49:45.662Z,15.70
2022-12-27T19:52:50.736Z,13.77
2022-12-27T19:55:53.551Z,13.60
2022-12-27T19:58:56.261Z,10.00
2022-12-27T20:01:59.267Z,34.70
2022-12-27T20:05:03.838Z,37.77
2022-12-27T20:08:19.771Z,22.65
2022-12-27T20:11:23.166Z,27.05
2022-12-27T20:14:26.123Z,31.27
2022-12-27T20:17:32.392Z,22.83
2022-12-27T20:20:37.816Z,23.70
2022-12-27T20:23:40.669Z,29.63
2022-12-27T20:26:43.861Z,30.42
2022-12-27T20:29:46.574Z,21.60
2022-12-27T20:32:49.818Z,18.77
2022-12-27T20:35:57.951Z,21.93
2022-12-27T20:39:00.939Z,15.77
2022-12-27T20:42:04.313Z,9.52
2022-12-27T20:45:08.246Z,11.13
2022-12-27T20:48:11.105Z,11.82
2022-12-27T20:51:17.309Z,12.63
2022-12-27T20:54:19.954Z,10.10
2022-12-27T20:57:23.565Z,8.88
2022-12-27T21:00:26.246Z,9.10
2022-12-27T21:03:30.039Z,13.10
2022-12-27T21:06:34.249Z,14.17
2022-12-27T21:09:37.557Z,31.95
2022-12-27T21:12:40.596Z,37.70
2022-12-27T21:15:45.942Z,33.20
2022-12-27T21:18:50.589Z,23.02
2022-12-27T21:21:54.854Z,14.37
2022-12-27T21:24:57.483Z,9.80
2022-12-27T21:28:00.164Z,8.95
2022-12-27T21:31:04.021Z,11.23
2022-12-27T21:34:07.876Z,13.07
2022-12-27T21:37:13.636Z,11.13
2022-12-27T21:40:16.519Z,13.70
2022-12-27T21:43:19.271Z,16.83
2022-12-27T21:46:24.972Z,28.88
2022-12-27T21:49:27.931Z,26.35
2022-12-27T21:52:31.931Z,22.10
2022-12-27T21:55:34.510Z,21.05
2022-12-27T21:58:38.653Z,18.63
2022-12-27T22:01:50.369Z,20.45
2022-12-27T22:04:55.155Z,16.85
2022-12-27T22:07:59.207Z,14.00
2022-12-27T22:11:01.886Z,13.95
2022-12-27T22:14:05.254Z,14.35
2022-12-27T22:17:07.894Z,14.65
2022-12-27T22:20:11.546Z,13.77
2022-12-27T22:23:15.653Z,9.37
2022-12-27T22:26:19.809Z,8.95
2022-12-27T22:29:22.482Z,9.93
2022-12-27T22:32:25.110Z,10.75
2022-12-27T22:35:27.714Z,10.32
2022-12-27T22:38:31.851Z,8.60
2022-12-27T22:41:36.216Z,8.73
2022-12-27T22:44:38.889Z,8.57
2022-12-27T22:47:41.663Z,8.93
2022-12-27T22:50:45.579Z,8.15
2022-12-27T22:53:50.442Z,7.80
2022-12-27T22:56:53.119Z,7.93
2022-12-27T22:59:55.734Z,7.68
2022-12-27T23:02:58.490Z,8.52
2022-12-27T23:06:01.339Z,7.80
2022-12-27T23:09:05.842Z,8.17
2022-12-27T23:12:08.617Z,8.27
2022-12-27T23:15:12.238Z,9.88
2022-12-27T23:18:14.886Z,9.93
2022-12-27T23:21:20.637Z,10.00
2022-12-27T23:24:28.652Z,9.33
2022-12-27T23:27:32.128Z,9.05
2022-12-27T23:30:34.738Z,8.88
2022-12-27T23:33:37.576Z,7.05
2022-12-27T23:36:43.181Z,6.82
2022-12-27T23:39:47.216Z,7.27
2022-12-27T23:42:49.803Z,6.63
2022-12-27T23:45:52.444Z,5.47
2022-12-27T23:48:55.632Z,6.13
2022-12-27T23:51:58.353Z,6.60
2022-12-27T23:55:02.415Z,6.47
2022-12-27T23:58:05.082Z,6.68
